This is the latest recevied weather packets stored in our database for station/object G0TQM-11. If no packets are shown the sender has not sent any weather packets the latest 10 day(s).
| Time | Temp. | Humidity | Pressure | Rain* | Wind** | Luminosity | Snow |
|---|---|---|---|---|---|---|---|
| 1777545889 | 22.22° C | 33% | 1018.7 hPa | - | - | - | - |
| 1777544694 | 20° C | 34% | 1019 hPa | - | - | - | - |
| 1777543494 | 18.33° C | 35% | 1019.2 hPa | - | - | - | - |
| 1777542294 | 17.22° C | 37% | 1019.3 hPa | - | - | - | - |
| 1777541094 | 15.56° C | 40% | 1019.4 hPa | - | - | - | - |
| 1777539894 | 13.89° C | 41% | 1019.7 hPa | - | - | - | - |
| 1777538693 | 12.78° C | 43% | 1020 hPa | - | - | - | - |
| 1777537493 | 11.67° C | 45% | 1020.3 hPa | - | - | - | - |
| 1777536293 | 11.11° C | 50% | 1020.5 hPa | - | - | - | - |
| 1777535093 | 9.44° C | 49% | 1020.7 hPa | - | - | - | - |
| 1777533893 | 8.33° C | 53% | 1020.9 hPa | - | - | - | - |
| 1777532693 | 6.67° C | 48% | 1021.1 hPa | - | - | - | - |
| 1777531492 | 5.56° C | 46% | 1021.2 hPa | - | - | - | - |
| 1777530292 | 5° C | 45% | 1021.5 hPa | - | - | - | - |
| 1777529092 | 4.44° C | 44% | 1021.6 hPa | - | - | - | - |
| 1777527892 | 4.44° C | 43% | 1021.8 hPa | - | - | - | - |
| 1777526692 | 4.44° C | 43% | 1021.7 hPa | - | - | - | - |
| 1777525492 | 4.44° C | 44% | 1021.9 hPa | - | - | - | - |
| 1777524292 | 4.44° C | 44% | 1021.8 hPa | - | - | - | - |
| 1777523092 | 5° C | 43% | 1021.9 hPa | - | - | - | - |
| 1777521891 | 5.56° C | 42% | 1021.8 hPa | - | - | - | - |
| 1777520691 | 5.56° C | 42% | 1021.9 hPa | - | - | - | - |
| 1777519491 | 6.11° C | 42% | 1022.1 hPa | - | - | - | - |
| 1777518291 | 6.11° C | 42% | 1022.3 hPa | - | - | - | - |
| 1777517091 | 6.11° C | 42% | 1022.2 hPa | - | - | - | - |
* Rain since midnight (hover to see other rain measurements)
** Current wind speed in m/s (hover to see current wind gust speed)